sensor_id;sensor_type;location;lat;lon;timestamp;pressure;altitude;pressure_sealevel;temperature;humidity
20228;BME280;12195;55.790;37.572;2023-03-05T00:01:13;96859.73;;;0.84;71.44
20228;BME280;12195;55.790;37.572;2023-03-05T00:03:39;96859.60;;;1.00;71.34
20228;BME280;12195;55.790;37.572;2023-03-05T00:06:11;96860.36;;;0.88;71.19
20228;BME280;12195;55.790;37.572;2023-03-05T00:08:43;96857.06;;;0.86;70.93
20228;BME280;12195;55.790;37.572;2023-03-05T00:11:15;96853.01;;;0.82;71.13
20228;BME280;12195;55.790;37.572;2023-03-05T00:13:52;96862.50;;;0.81;71.12
20228;BME280;12195;55.790;37.572;2023-03-05T00:16:24;96853.19;;;0.79;71.01
20228;BME280;12195;55.790;37.572;2023-03-05T00:18:59;96857.73;;;0.75;71.08
20228;BME280;12195;55.790;37.572;2023-03-05T00:21:34;96860.00;;;0.80;71.17
20228;BME280;12195;55.790;37.572;2023-03-05T00:24:09;96860.13;;;0.78;70.93
20228;BME280;12195;55.790;37.572;2023-03-05T00:26:41;96866.28;;;0.76;71.32
20228;BME280;12195;55.790;37.572;2023-03-05T00:29:15;96856.25;;;0.71;71.44
20228;BME280;12195;55.790;37.572;2023-03-05T00:31:49;96863.91;;;0.73;71.37
20228;BME280;12195;55.790;37.572;2023-03-05T00:34:21;96851.90;;;0.72;71.46
20228;BME280;12195;55.790;37.572;2023-03-05T00:36:55;96857.91;;;0.72;71.37
20228;BME280;12195;55.790;37.572;2023-03-05T00:39:28;96868.98;;;0.74;71.37
20228;BME280;12195;55.790;37.572;2023-03-05T00:42:00;96863.91;;;0.73;71.01
20228;BME280;12195;55.790;37.572;2023-03-05T00:44:32;96866.48;;;0.73;70.65
20228;BME280;12195;55.790;37.572;2023-03-05T00:47:04;96861.69;;;0.67;70.82
20228;BME280;12195;55.790;37.572;2023-03-05T00:49:36;96860.96;;;0.65;70.96
20228;BME280;12195;55.790;37.572;2023-03-05T00:52:08;96858.92;;;0.70;70.75
20228;BME280;12195;55.790;37.572;2023-03-05T00:54:40;96854.03;;;0.65;70.73
20228;BME280;12195;55.790;37.572;2023-03-05T00:57:13;96867.32;;;0.59;71.04
20228;BME280;12195;55.790;37.572;2023-03-05T00:59:48;96862.80;;;0.63;70.86
20228;BME280;12195;55.790;37.572;2023-03-05T01:02:20;96857.62;;;0.63;70.57
20228;BME280;12195;55.790;37.572;2023-03-05T01:04:52;96859.67;;;0.58;70.79
20228;BME280;12195;55.790;37.572;2023-03-05T01:07:25;96857.62;;;0.63;70.66
20228;BME280;12195;55.790;37.572;2023-03-05T01:09:58;96866.78;;;0.54;70.78
20228;BME280;12195;55.790;37.572;2023-03-05T01:12:30;96851.09;;;0.57;70.62
20228;BME280;12195;55.790;37.572;2023-03-05T01:15:03;96848.72;;;0.54;70.24
20228;BME280;12195;55.790;37.572;2023-03-05T01:17:36;96853.42;;;0.48;70.49
20228;BME280;12195;55.790;37.572;2023-03-05T01:20:11;96857.91;;;0.44;70.17
20228;BME280;12195;55.790;37.572;2023-03-05T01:22:42;96850.47;;;0.40;70.24
20228;BME280;12195;55.790;37.572;2023-03-05T01:25:16;96859.31;;;0.36;70.48
20228;BME280;12195;55.790;37.572;2023-03-05T01:27:48;96859.02;;;0.40;70.31
20228;BME280;12195;55.790;37.572;2023-03-05T01:30:20;96864.39;;;0.37;70.18
20228;BME280;12195;55.790;37.572;2023-03-05T01:32:53;96859.23;;;0.37;70.14
20228;BME280;12195;55.790;37.572;2023-03-05T01:35:26;96854.70;;;0.41;70.19
20228;BME280;12195;55.790;37.572;2023-03-05T01:37:58;96859.23;;;0.37;70.20
20228;BME280;12195;55.790;37.572;2023-03-05T01:40:31;96859.41;;;0.34;70.70
20228;BME280;12195;55.790;37.572;2023-03-05T01:43:18;96850.83;;;0.34;70.76
20228;BME280;12195;55.790;37.572;2023-03-05T01:48:51;96849.81;;;0.36;70.19
20228;BME280;12195;55.790;37.572;2023-03-05T01:51:26;96852.68;;;0.32;70.16
20228;BME280;12195;55.790;37.572;2023-03-05T01:54:00;96859.58;;;0.31;69.92
20228;BME280;12195;55.790;37.572;2023-03-05T01:56:32;96853.96;;;0.25;70.16
20228;BME280;12195;55.790;37.572;2023-03-05T01:59:04;96863.45;;;0.38;70.20
20228;BME280;12195;55.790;37.572;2023-03-05T02:01:45;96850.36;;;0.27;69.92
20228;BME280;12195;55.790;37.572;2023-03-05T02:04:13;96853.12;;;0.24;70.01
20228;BME280;12195;55.790;37.572;2023-03-05T02:06:46;96852.39;;;0.22;70.14
20228;BME280;12195;55.790;37.572;2023-03-05T02:09:19;96856.71;;;0.22;70.08
20228;BME280;12195;55.790;37.572;2023-03-05T02:11:52;96857.64;;;0.21;70.13
20228;BME280;12195;55.790;37.572;2023-03-05T02:14:26;96843.17;;;0.32;70.44
20228;BME280;12195;55.790;37.572;2023-03-05T02:16:59;96851.84;;;0.31;69.79
20228;BME280;12195;55.790;37.572;2023-03-05T02:19:45;96852.74;;;0.16;69.66
20228;BME280;12195;55.790;37.572;2023-03-05T02:22:20;96853.67;;;0.15;69.74
20228;BME280;12195;55.790;37.572;2023-03-05T02:24:53;96853.96;;;0.11;69.87
20228;BME280;12195;55.790;37.572;2023-03-05T02:27:30;96860.22;;;0.07;69.93
20228;BME280;12195;55.790;37.572;2023-03-05T02:30:07;96857.64;;;0.07;70.06
20228;BME280;12195;55.790;37.572;2023-03-05T02:32:39;96850.80;;;0.05;69.86
20228;BME280;12195;55.790;37.572;2023-03-05T02:35:12;96855.31;;;0.02;70.05
20228;BME280;12195;55.790;37.572;2023-03-05T02:37:44;96854.84;;;-0.05;70.08
20228;BME280;12195;55.790;37.572;2023-03-05T02:40:16;96850.96;;;-0.12;70.16
20228;BME280;12195;55.790;37.572;2023-03-05T02:42:48;96851.72;;;-0.10;70.04
20228;BME280;12195;55.790;37.572;2023-03-05T02:45:20;96845.97;;;-0.15;70.36
20228;BME280;12195;55.790;37.572;2023-03-05T02:47:52;96838.53;;;-0.19;70.45
20228;BME280;12195;55.790;37.572;2023-03-05T02:50:26;96846.34;;;-0.21;70.51
20228;BME280;12195;55.790;37.572;2023-03-05T02:52:58;96833.62;;;-0.24;70.54
20228;BME280;12195;55.790;37.572;2023-03-05T02:55:31;96840.47;;;-0.23;70.85
20228;BME280;12195;55.790;37.572;2023-03-05T02:58:03;96844.22;;;-0.28;70.87
20228;BME280;12195;55.790;37.572;2023-03-05T03:00:35;96838.14;;;-0.27;70.95
20228;BME280;12195;55.790;37.572;2023-03-05T03:03:07;96842.82;;;-0.34;71.20
20228;BME280;12195;55.790;37.572;2023-03-05T03:05:40;96838.67;;;-0.36;71.46
20228;BME280;12195;55.790;37.572;2023-03-05T03:08:12;96837.11;;;-0.39;71.72
20228;BME280;12195;55.790;37.572;2023-03-05T03:10:45;96840.41;;;-0.37;71.95
20228;BME280;12195;55.790;37.572;2023-03-05T03:13:17;96836.83;;;-0.34;71.95
20228;BME280;12195;55.790;37.572;2023-03-05T03:15:50;96828.17;;;-0.33;71.89
20228;BME280;12195;55.790;37.572;2023-03-05T03:18:22;96828.17;;;-0.33;71.89
20228;BME280;12195;55.790;37.572;2023-03-05T03:20:54;96835.27;;;-0.37;72.08
20228;BME280;12195;55.790;37.572;2023-03-05T03:23:26;96823.30;;;-0.38;72.30
20228;BME280;12195;55.790;37.572;2023-03-05T03:25:58;96829.47;;;-0.40;72.62
20228;BME280;12195;55.790;37.572;2023-03-05T03:28:30;96824.39;;;-0.42;72.97
20228;BME280;12195;55.790;37.572;2023-03-05T03:31:03;96832.94;;;-0.41;73.21
20228;BME280;12195;55.790;37.572;2023-03-05T03:33:36;96834.53;;;-0.39;73.22
20228;BME280;12195;55.790;37.572;2023-03-05T03:36:09;96837.84;;;-0.37;73.32
20228;BME280;12195;55.790;37.572;2023-03-05T03:38:41;96833.33;;;-0.33;73.52
20228;BME280;12195;55.790;37.572;2023-03-05T03:41:15;96835.09;;;-0.34;73.58
20228;BME280;12195;55.790;37.572;2023-03-05T03:43:48;96823.38;;;-0.39;73.71
20228;BME280;12195;55.790;37.572;2023-03-05T03:46:20;96831.28;;;-0.42;73.87
20228;BME280;12195;55.790;37.572;2023-03-05T03:48:53;96834.53;;;-0.39;74.03
20228;BME280;12195;55.790;37.572;2023-03-05T03:51:25;96832.46;;;-0.48;74.18
20228;BME280;12195;55.790;37.572;2023-03-05T03:53:57;96828.06;;;-0.46;74.22
20228;BME280;12195;55.790;37.572;2023-03-05T03:56:30;96827.89;;;-0.43;74.42
20228;BME280;12195;55.790;37.572;2023-03-05T03:59:02;96829.63;;;-0.43;74.49
20228;BME280;12195;55.790;37.572;2023-03-05T04:01:35;96828.31;;;-0.50;74.65
20228;BME280;12195;55.790;37.572;2023-03-05T04:04:08;96821.43;;;-0.50;74.75
20228;BME280;12195;55.790;37.572;2023-03-05T04:06:41;96826.75;;;-0.53;75.02
20228;BME280;12195;55.790;37.572;2023-03-05T04:09:13;96824.09;;;-0.51;75.10
20228;BME280;12195;55.790;37.572;2023-03-05T04:11:45;96823.84;;;-0.47;75.13
20228;BME280;12195;55.790;37.572;2023-03-05T04:14:18;96831.65;;;-0.48;75.14
20228;BME280;12195;55.790;37.572;2023-03-05T04:16:50;96830.80;;;-0.49;75.17
20228;BME280;12195;55.790;37.572;2023-03-05T04:19:22;96830.08;;;-0.51;75.30
20228;BME280;12195;55.790;37.572;2023-03-05T04:21:54;96828.06;;;-0.46;75.36
20228;BME280;12195;55.790;37.572;2023-03-05T04:24:26;96831.37;;;-0.44;75.34
20228;BME280;12195;55.790;37.572;2023-03-05T04:26:58;96827.98;;;-0.44;75.35
20228;BME280;12195;55.790;37.572;2023-03-05T04:29:30;96823.64;;;-0.44;75.30
20228;BME280;12195;55.790;37.572;2023-03-05T04:32:02;96829.72;;;-0.45;75.14
20228;BME280;12195;55.790;37.572;2023-03-05T04:34:36;96836.44;;;-0.42;75.31
20228;BME280;12195;55.790;37.572;2023-03-05T04:37:08;96836.36;;;-0.41;75.07
20228;BME280;12195;55.790;37.572;2023-03-05T04:39:41;96827.36;;;-0.34;75.23
20228;BME280;12195;55.790;37.572;2023-03-05T04:42:13;96837.00;;;-0.37;75.16
20228;BME280;12195;55.790;37.572;2023-03-05T04:44:47;96838.48;;;-0.33;75.18
20228;BME280;12195;55.790;37.572;2023-03-05T04:47:19;96837.75;;;-0.35;75.03
20228;BME280;12195;55.790;37.572;2023-03-05T04:49:51;96840.24;;;-0.34;75.07
20228;BME280;12195;55.790;37.572;2023-03-05T04:52:23;96841.56;;;-0.27;74.79
20228;BME280;12195;55.790;37.572;2023-03-05T04:54:56;96844.78;;;-0.23;74.11
20228;BME280;12195;55.790;37.572;2023-03-05T04:57:30;96846.80;;;-0.28;74.52
20228;BME280;12195;55.790;37.572;2023-03-05T05:00:03;96842.45;;;-0.28;74.26
20228;BME280;12195;55.790;37.572;2023-03-05T05:02:37;96841.45;;;-0.25;73.78
20228;BME280;12195;55.790;37.572;2023-03-05T05:05:11;96843.13;;;-0.24;74.14
20228;BME280;12195;55.790;37.572;2023-03-05T05:07:44;96846.90;;;-0.16;73.90
20228;BME280;12195;55.790;37.572;2023-03-05T05:10:16;96847.20;;;-0.06;73.05
20228;BME280;12195;55.790;37.572;2023-03-05T05:12:48;96851.34;;;-0.04;73.07
20228;BME280;12195;55.790;37.572;2023-03-05T05:15:21;96853.92;;;-0.04;72.64
20228;BME280;12195;55.790;37.572;2023-03-05T05:17:53;96849.23;;;0.03;72.73
20228;BME280;12195;55.790;37.572;2023-03-05T05:20:25;96848.42;;;0.17;72.73
20228;BME280;12195;55.790;37.572;2023-03-05T05:22:58;96843.35;;;0.15;72.47
20228;BME280;12195;55.790;37.572;2023-03-05T05:25:30;96856.71;;;0.22;72.22
20228;BME280;12195;55.790;37.572;2023-03-05T05:28:03;96846.39;;;0.22;72.01
20228;BME280;12195;55.790;37.572;2023-03-05T05:30:35;96848.05;;;0.23;72.02
20228;BME280;12195;55.790;37.572;2023-03-05T05:33:08;96852.86;;;0.29;72.15
20228;BME280;12195;55.790;37.572;2023-03-05T05:35:40;96855.98;;;0.34;72.06
20228;BME280;12195;55.790;37.572;2023-03-05T05:38:13;96849.89;;;0.35;72.30
20228;BME280;12195;55.790;37.572;2023-03-05T05:40:45;96866.39;;;0.32;72.28
20228;BME280;12195;55.790;37.572;2023-03-05T05:43:17;96861.14;;;0.34;72.47
20228;BME280;12195;55.790;37.572;2023-03-05T05:45:49;96861.69;;;0.39;72.71
20228;BME280;12195;55.790;37.572;2023-03-05T05:48:21;96853.05;;;0.40;72.72
20228;BME280;12195;55.790;37.572;2023-03-05T05:50:54;96862.98;;;0.46;72.52
20228;BME280;12195;55.790;37.572;2023-03-05T05:53:26;96868.06;;;0.47;72.87
20228;BME280;12195;55.790;37.572;2023-03-05T05:55:59;96864.84;;;0.44;72.61
20228;BME280;12195;55.790;37.572;2023-03-05T05:58:31;96863.92;;;0.45;72.92
20228;BME280;12195;55.790;37.572;2023-03-05T06:03:51;96873.61;;;0.41;73.17
20228;BME280;12195;55.790;37.572;2023-03-05T06:06:24;96876.82;;;0.45;73.21
20228;BME280;12195;55.790;37.572;2023-03-05T06:08:57;96874.23;;;0.45;73.32
20228;BME280;12195;55.790;37.572;2023-03-05T06:11:29;96874.78;;;0.50;73.47
20228;BME280;12195;55.790;37.572;2023-03-05T06:14:03;96874.78;;;0.50;73.64
20228;BME280;12195;55.790;37.572;2023-03-05T06:16:37;96881.42;;;0.54;73.57
20228;BME280;12195;55.790;37.572;2023-03-05T06:19:14;96879.20;;;0.62;73.67
20228;BME280;12195;55.790;37.572;2023-03-05T06:21:46;96883.37;;;0.50;73.68
20228;BME280;12195;55.790;37.572;2023-03-05T06:24:18;96885.19;;;0.48;73.44
20228;BME280;12195;55.790;37.572;2023-03-05T06:26:50;96877.08;;;0.40;73.53
20228;BME280;12195;55.790;37.572;2023-03-05T06:29:22;96873.86;;;0.37;73.85
20228;BME280;12195;55.790;37.572;2023-03-05T06:31:54;96882.06;;;0.43;74.03
20228;BME280;12195;55.790;37.572;2023-03-05T06:34:27;96882.16;;;0.42;74.27
20228;BME280;12195;55.790;37.572;2023-03-05T06:36:59;96885.19;;;0.48;74.10
20228;BME280;12195;55.790;37.572;2023-03-05T06:39:31;96891.02;;;0.52;74.57
20228;BME280;12195;55.790;37.572;2023-03-05T06:42:04;96890.91;;;0.53;74.35
20228;BME280;12195;55.790;37.572;2023-03-05T06:44:40;96894.06;;;0.58;74.26
20228;BME280;12195;55.790;37.572;2023-03-05T06:47:12;96889.62;;;0.60;74.04
20228;BME280;12195;55.790;37.572;2023-03-05T06:49:44;96889.53;;;0.62;73.96
20228;BME280;12195;55.790;37.572;2023-03-05T06:52:16;96896.89;;;0.68;74.10
20228;BME280;12195;55.790;37.572;2023-03-05T06:54:49;96902.23;;;0.79;74.45
20228;BME280;12195;55.790;37.572;2023-03-05T06:57:23;96898.84;;;0.78;74.43
20228;BME280;12195;55.790;37.572;2023-03-05T06:59:55;96894.88;;;0.73;73.54
20228;BME280;12195;55.790;37.572;2023-03-05T07:02:30;96901.33;;;0.66;73.90
20228;BME280;12195;55.790;37.572;2023-03-05T07:05:02;96911.56;;;0.67;73.51
20228;BME280;12195;55.790;37.572;2023-03-05T07:07:35;96905.38;;;0.70;73.58
20228;BME280;12195;55.790;37.572;2023-03-05T07:10:08;96911.64;;;0.80;73.92
20228;BME280;12195;55.790;37.572;2023-03-05T07:12:40;96911.84;;;0.77;73.72
20228;BME280;12195;55.790;37.572;2023-03-05T07:15:13;96925.65;;;0.76;73.51
20228;BME280;12195;55.790;37.572;2023-03-05T07:17:45;96929.91;;;0.77;73.75
20228;BME280;12195;55.790;37.572;2023-03-05T07:20:17;96927.13;;;0.80;73.55
20228;BME280;12195;55.790;37.572;2023-03-05T07:22:49;96931.30;;;0.82;73.45
20228;BME280;12195;55.790;37.572;2023-03-05T07:25:21;96936.26;;;0.85;73.50
20228;BME280;12195;55.790;37.572;2023-03-05T07:27:54;96934.78;;;0.81;73.63
20228;BME280;12195;55.790;37.572;2023-03-05T07:30:26;96942.34;;;0.84;73.67
20228;BME280;12195;55.790;37.572;2023-03-05T07:32:58;96933.59;;;0.87;73.64
20228;BME280;12195;55.790;37.572;2023-03-05T07:35:32;96941.16;;;0.90;73.82
20228;BME280;12195;55.790;37.572;2023-03-05T07:38:04;96942.45;;;0.97;73.78
20228;BME280;12195;55.790;37.572;2023-03-05T07:40:37;96940.41;;;1.02;73.76
20228;BME280;12195;55.790;37.572;2023-03-05T07:43:09;96954.41;;;1.12;73.60
20228;BME280;12195;55.790;37.572;2023-03-05T07:45:43;96963.98;;;1.24;73.43
20228;BME280;12195;55.790;37.572;2023-03-05T07:48:17;96958.38;;;1.17;73.24
20228;BME280;12195;55.790;37.572;2023-03-05T07:50:59;96959.21;;;1.18;73.44
20228;BME280;12195;55.790;37.572;2023-03-05T07:53:32;96979.49;;;1.24;73.80
20228;BME280;12195;55.790;37.572;2023-03-05T07:56:05;96971.08;;;1.34;73.85
20228;BME280;12195;55.790;37.572;2023-03-05T07:58:37;96978.11;;;1.32;73.80
20228;BME280;12195;55.790;37.572;2023-03-05T08:01:11;96982.70;;;1.41;73.93
20228;BME280;12195;55.790;37.572;2023-03-05T08:03:45;96988.31;;;1.48;73.66
20228;BME280;12195;55.790;37.572;2023-03-05T08:06:17;96982.56;;;1.57;73.62
20228;BME280;12195;55.790;37.572;2023-03-05T08:08:49;96984.22;;;1.58;73.33
20228;BME280;12195;55.790;37.572;2023-03-05T08:11:21;96990.14;;;1.60;73.44
20228;BME280;12195;55.790;37.572;2023-03-05T08:13:54;96996.69;;;1.65;73.29
20228;BME280;12195;55.790;37.572;2023-03-05T08:16:27;96998.96;;;1.70;73.43
20228;BME280;12195;55.790;37.572;2023-03-05T08:19:00;96996.63;;;1.79;73.25
20228;BME280;12195;55.790;37.572;2023-03-05T08:21:34;97006.70;;;1.84;72.69
20228;BME280;12195;55.790;37.572;2023-03-05T08:24:08;97007.42;;;1.86;72.41
20228;BME280;12195;55.790;37.572;2023-03-05T08:26:40;97019.23;;;1.90;73.03
20228;BME280;12195;55.790;37.572;2023-03-05T08:29:12;97022.69;;;2.03;73.18
20228;BME280;12195;55.790;37.572;2023-03-05T08:31:46;97023.78;;;2.13;72.64
20228;BME280;12195;55.790;37.572;2023-03-05T08:34:21;97030.95;;;2.22;72.41
20228;BME280;12195;55.790;37.572;2023-03-05T08:36:53;97030.75;;;2.25;72.44
20228;BME280;12195;55.790;37.572;2023-03-05T08:39:25;97036.55;;;2.28;72.27
20228;BME280;12195;55.790;37.572;2023-03-05T08:41:57;97041.30;;;2.22;72.29
20228;BME280;12195;55.790;37.572;2023-03-05T08:44:29;97042.76;;;2.26;72.25
20228;BME280;12195;55.790;37.572;2023-03-05T08:47:01;97047.56;;;2.32;71.79
20228;BME280;12195;55.790;37.572;2023-03-05T08:49:33;97052.66;;;2.46;71.90
20228;BME280;12195;55.790;37.572;2023-03-05T08:52:05;97057.56;;;2.63;71.64
20228;BME280;12195;55.790;37.572;2023-03-05T08:54:38;97059.22;;;2.64;70.95
20228;BME280;12195;55.790;37.572;2023-03-05T08:57:10;97056.23;;;2.70;70.66
20228;BME280;12195;55.790;37.572;2023-03-05T08:59:42;97064.20;;;2.67;70.17
20228;BME280;12195;55.790;37.572;2023-03-05T09:02:14;97063.48;;;2.65;69.90
20228;BME280;12195;55.790;37.572;2023-03-05T09:04:46;97072.91;;;2.66;69.48
20228;BME280;12195;55.790;37.572;2023-03-05T09:07:18;97069.48;;;2.65;68.87
20228;BME280;12195;55.790;37.572;2023-03-05T09:09:50;97078.19;;;2.64;70.00
20228;BME280;12195;55.790;37.572;2023-03-05T09:12:23;97080.97;;;2.61;70.24
20228;BME280;12195;55.790;37.572;2023-03-05T09:14:56;97085.19;;;2.50;70.00
20228;BME280;12195;55.790;37.572;2023-03-05T09:17:29;97088.63;;;2.50;70.17
20228;BME280;12195;55.790;37.572;2023-03-05T09:20:03;97093.55;;;2.41;70.51
20228;BME280;12195;55.790;37.572;2023-03-05T09:22:35;97104.53;;;2.44;70.39
20228;BME280;12195;55.790;37.572;2023-03-05T09:25:09;97094.80;;;2.48;70.84
20228;BME280;12195;55.790;37.572;2023-03-05T09:27:41;97103.94;;;2.53;70.58
20228;BME280;12195;55.790;37.572;2023-03-05T09:30:15;97108.84;;;2.70;71.55
20228;BME280;12195;55.790;37.572;2023-03-05T09:32:48;97110.10;;;2.65;69.78
20228;BME280;12195;55.790;37.572;2023-03-05T09:35:21;97115.38;;;2.63;69.39
20228;BME280;12195;55.790;37.572;2023-03-05T09:37:54;97128.52;;;2.60;69.88
20228;BME280;12195;55.790;37.572;2023-03-05T09:40:37;97134.97;;;2.67;70.96
20228;BME280;12195;55.790;37.572;2023-03-05T09:43:20;97133.00;;;2.71;70.60
20228;BME280;12195;55.790;37.572;2023-03-05T09:46:08;97141.63;;;2.84;71.34
20228;BME280;12195;55.790;37.572;2023-03-05T09:51:17;97149.83;;;2.90;70.39
20228;BME280;12195;55.790;37.572;2023-03-05T09:54:09;97148.92;;;2.91;70.02
20228;BME280;12195;55.790;37.572;2023-03-05T09:56:43;97159.67;;;2.85;69.02
20228;BME280;12195;55.790;37.572;2023-03-05T10:00:06;97162.55;;;2.81;69.51
20228;BME280;12195;55.790;37.572;2023-03-05T10:02:11;97164.42;;;2.79;69.43
20228;BME280;12195;55.790;37.572;2023-03-05T10:04:47;97172.53;;;2.87;69.38
20228;BME280;12195;55.790;37.572;2023-03-05T10:07:29;97169.43;;;2.94;69.43
20228;BME280;12195;55.790;37.572;2023-03-05T10:10:07;97176.08;;;2.98;69.38
20228;BME280;12195;55.790;37.572;2023-03-05T10:12:51;97183.98;;;3.09;68.98
20228;BME280;12195;55.790;37.572;2023-03-05T10:15:32;97189.70;;;3.14;69.01
20228;BME280;12195;55.790;37.572;2023-03-05T10:20:58;97193.88;;;3.29;68.77
20228;BME280;12195;55.790;37.572;2023-03-05T10:24:16;97198.42;;;3.26;67.13
20228;BME280;12195;55.790;37.572;2023-03-05T10:32:21;97219.62;;;3.32;65.73
20228;BME280;12195;55.790;37.572;2023-03-05T10:43:27;97237.02;;;2.91;65.83
20228;BME280;12195;55.790;37.572;2023-03-05T10:46:01;97244.53;;;2.82;65.47
20228;BME280;12195;55.790;37.572;2023-03-05T10:48:50;97250.62;;;2.81;65.74
20228;BME280;12195;55.790;37.572;2023-03-05T10:51:33;97254.09;;;2.67;65.45
20228;BME280;12195;55.790;37.572;2023-03-05T10:54:29;97256.03;;;2.64;66.29
20228;BME280;12195;55.790;37.572;2023-03-05T10:57:21;97257.80;;;2.63;65.56
20228;BME280;12195;55.790;37.572;2023-03-05T11:02:33;97277.53;;;2.38;66.50
20228;BME280;12195;55.790;37.572;2023-03-05T11:05:17;97295.17;;;2.17;66.84
20228;BME280;12195;55.790;37.572;2023-03-05T11:07:40;97295.66;;;2.24;66.95
20228;BME280;12195;55.790;37.572;2023-03-05T11:10:17;97302.09;;;2.03;67.27
20228;BME280;12195;55.790;37.572;2023-03-05T11:12:51;97308.66;;;1.94;67.63
20228;BME280;12195;55.790;37.572;2023-03-05T11:15:26;97307.80;;;1.80;67.82
20228;BME280;12195;55.790;37.572;2023-03-05T11:18:17;97316.25;;;1.97;68.45
20228;BME280;12195;55.790;37.572;2023-03-05T11:20:49;97319.80;;;1.81;68.96
20228;BME280;12195;55.790;37.572;2023-03-05T11:23:23;97321.38;;;1.83;68.64
20228;BME280;12195;55.790;37.572;2023-03-05T11:31:29;97337.20;;;1.93;69.04
20228;BME280;12195;55.790;37.572;2023-03-05T11:39:29;97353.65;;;1.92;68.38
20228;BME280;12195;55.790;37.572;2023-03-05T11:42:12;97364.55;;;1.97;68.39
20228;BME280;12195;55.790;37.572;2023-03-05T11:44:49;97366.77;;;2.03;68.23
20228;BME280;12195;55.790;37.572;2023-03-05T11:50:24;97378.89;;;2.02;67.74
20228;BME280;12195;55.790;37.572;2023-03-05T11:53:05;97376.14;;;2.05;66.62
20228;BME280;12195;55.790;37.572;2023-03-05T11:55:44;97387.37;;;2.04;67.01
20228;BME280;12195;55.790;37.572;2023-03-05T11:58:34;97401.08;;;2.06;66.28
20228;BME280;12195;55.790;37.572;2023-03-05T12:01:22;97400.70;;;2.12;65.81
20228;BME280;12195;55.790;37.572;2023-03-05T12:03:48;97397.95;;;2.15;65.15
20228;BME280;12195;55.790;37.572;2023-03-05T12:07:02;97409.70;;;2.21;64.71
20228;BME280;12195;55.790;37.572;2023-03-05T12:09:39;97411.28;;;2.23;64.70
20228;BME280;12195;55.790;37.572;2023-03-05T12:12:32;97417.31;;;2.38;65.00
20228;BME280;12195;55.790;37.572;2023-03-05T12:23:52;97430.66;;;2.88;63.80
20228;BME280;12195;55.790;37.572;2023-03-05T12:26:17;97434.19;;;2.87;63.33
20228;BME280;12195;55.790;37.572;2023-03-05T12:28:55;97432.88;;;2.80;63.84
20228;BME280;12195;55.790;37.572;2023-03-05T12:31:38;97438.70;;;2.69;64.40
20228;BME280;12195;55.790;37.572;2023-03-05T12:34:34;97446.39;;;2.57;64.24
20228;BME280;12195;55.790;37.572;2023-03-05T12:37:10;97449.23;;;2.52;64.48
20228;BME280;12195;55.790;37.572;2023-03-05T12:39:49;97465.79;;;2.50;64.62
20228;BME280;12195;55.790;37.572;2023-03-05T12:53:18;97484.36;;;2.13;64.52
20228;BME280;12195;55.790;37.572;2023-03-05T13:04:04;97500.16;;;1.93;65.70
20228;BME280;12195;55.790;37.572;2023-03-05T13:06:38;97502.59;;;1.96;64.95
20228;BME280;12195;55.790;37.572;2023-03-05T13:09:25;97502.34;;;1.85;65.35
20228;BME280;12195;55.790;37.572;2023-03-05T13:12:03;97507.02;;;1.78;65.42
20228;BME280;12195;55.790;37.572;2023-03-05T13:14:42;97516.59;;;1.76;65.25
20228;BME280;12195;55.790;37.572;2023-03-05T13:20:27;97516.87;;;1.72;64.58
20228;BME280;12195;55.790;37.572;2023-03-05T13:23:17;97524.63;;;1.72;64.96
20228;BME280;12195;55.790;37.572;2023-03-05T13:28:32;97538.95;;;1.62;65.39
20228;BME280;12195;55.790;37.572;2023-03-05T13:31:14;97538.06;;;1.63;65.68
20228;BME280;12195;55.790;37.572;2023-03-05T13:33:54;97544.63;;;1.53;66.02
20228;BME280;12195;55.790;37.572;2023-03-05T13:36:26;97542.96;;;1.52;66.07
20228;BME280;12195;55.790;37.572;2023-03-05T13:38:59;97551.56;;;1.52;66.49
20228;BME280;12195;55.790;37.572;2023-03-05T13:41:32;97557.13;;;1.45;66.72
20228;BME280;12195;55.790;37.572;2023-03-05T13:44:04;97563.21;;;1.44;66.89
20228;BME280;12195;55.790;37.572;2023-03-05T13:46:37;97567.64;;;1.42;66.92
20228;BME280;12195;55.790;37.572;2023-03-05T13:49:21;97573.12;;;1.36;66.79
20228;BME280;12195;55.790;37.572;2023-03-05T13:51:55;97569.95;;;1.31;66.80
20228;BME280;12195;55.790;37.572;2023-03-05T13:54:29;97574.27;;;1.30;66.82
20228;BME280;12195;55.790;37.572;2023-03-05T13:57:04;97586.63;;;1.41;67.24
20228;BME280;12195;55.790;37.572;2023-03-05T13:59:37;97597.15;;;1.38;65.84
20228;BME280;12195;55.790;37.572;2023-03-05T14:02:18;97595.86;;;1.29;65.12
20228;BME280;12195;55.790;37.572;2023-03-05T14:04:51;97602.95;;;1.26;64.81
20228;BME280;12195;55.790;37.572;2023-03-05T14:07:31;97603.25;;;1.20;64.42
20228;BME280;12195;55.790;37.572;2023-03-05T14:10:32;97616.31;;;1.17;64.33
20228;BME280;12195;55.790;37.572;2023-03-05T14:13:19;97603.80;;;1.09;64.38
20228;BME280;12195;55.790;37.572;2023-03-05T14:16:07;97611.80;;;1.05;64.48
20228;BME280;12195;55.790;37.572;2023-03-05T14:18:54;97613.39;;;1.07;64.48
20228;BME280;12195;55.790;37.572;2023-03-05T14:21:50;97610.70;;;1.09;64.37
20228;BME280;12195;55.790;37.572;2023-03-05T14:24:24;97619.67;;;1.19;64.57
20228;BME280;12195;55.790;37.572;2023-03-05T14:27:00;97623.30;;;1.32;64.10
20228;BME280;12195;55.790;37.572;2023-03-05T14:29:35;97629.41;;;1.14;63.84
20228;BME280;12195;55.790;37.572;2023-03-05T14:32:18;97628.42;;;1.16;63.52
20228;BME280;12195;55.790;37.572;2023-03-05T14:34:46;97628.42;;;1.16;64.42
20228;BME280;12195;55.790;37.572;2023-03-05T14:37:23;97639.36;;;1.04;64.86
20228;BME280;12195;55.790;37.572;2023-03-05T14:40:02;97641.10;;;1.04;65.08
20228;BME280;12195;55.790;37.572;2023-03-05T14:48:00;97643.41;;;0.93;66.59
20228;BME280;12195;55.790;37.572;2023-03-05T14:50:37;97650.97;;;0.96;66.46
20228;BME280;12195;55.790;37.572;2023-03-05T14:53:20;97662.61;;;0.87;66.38
20228;BME280;12195;55.790;37.572;2023-03-05T14:55:47;97649.03;;;1.01;66.18
20228;BME280;12195;55.790;37.572;2023-03-05T14:58:22;97658.12;;;0.91;65.24